Terminal Aerodrome Forecast
Issued by NWS

Home | Current Version | Previous Version | Text Only | Print | Product List | Glossary On
Versions: 1 2 3 4 5 6 7 8 9 10 11 12 13 14 15 16 17 18 19 20 21 22 23 24 25 26 27 28 29 30
888
FTUS45 KRIW 251729
TAFPNA
TAF
KPNA 251729Z 2518/2618 30006KT 4SM -SN SCT008 OVC017
      TEMPO 2518/2522 1 1/2SM -SN BKN008
     FM260200 30010KT P6SM VCSH SCT016 BKN035
     FM260400 30010KT P6SM SCT035 BKN080
     FM260800 30006KT P6SM SCT080
      AMD LTD TO CLD VIS AND WIND=

USA.gov is the U.S. government's official web portal to all federal, state and local government web resources and services.